sensor_id;sensor_type;location;lat;lon;timestamp;pressure;altitude;pressure_sealevel;temperature;humidity
54948;BME280;41113;41.882;12.530;2023-12-14T00:01:49;100174.47;;;14.53;83.94
54948;BME280;41113;41.882;12.530;2023-12-14T00:04:15;100178.00;;;14.53;83.89
54948;BME280;41113;41.882;12.530;2023-12-14T00:06:40;100176.13;;;14.54;83.83
54948;BME280;41113;41.882;12.530;2023-12-14T00:09:06;100180.34;;;14.56;83.54
54948;BME280;41113;41.882;12.530;2023-12-14T00:11:37;100180.34;;;14.56;83.62
54948;BME280;41113;41.882;12.530;2023-12-14T00:14:03;100180.34;;;14.56;83.54
54948;BME280;41113;41.882;12.530;2023-12-14T00:16:28;100187.28;;;14.59;83.81
54948;BME280;41113;41.882;12.530;2023-12-14T00:18:53;100178.66;;;14.55;83.23
54948;BME280;41113;41.882;12.530;2023-12-14T00:21:19;100189.47;;;14.55;82.99
54948;BME280;41113;41.882;12.530;2023-12-14T00:23:44;100182.38;;;14.54;83.25
54948;BME280;41113;41.882;12.530;2023-12-14T00:26:11;100189.81;;;14.52;82.94
54948;BME280;41113;41.882;12.530;2023-12-14T00:28:36;100182.38;;;14.54;83.71
54948;BME280;41113;41.882;12.530;2023-12-14T00:31:01;100181.91;;;14.51;83.54
54948;BME280;41113;41.882;12.530;2023-12-14T00:33:27;100186.47;;;14.50;83.61
54948;BME280;41113;41.882;12.530;2023-12-14T00:35:52;100181.06;;;14.50;83.63
54948;BME280;41113;41.882;12.530;2023-12-14T00:38:17;100182.75;;;14.51;83.56
54948;BME280;41113;41.882;12.530;2023-12-14T00:40:43;100182.75;;;14.51;83.49
54948;BME280;41113;41.882;12.530;2023-12-14T00:43:08;100181.06;;;14.50;83.35
54948;BME280;41113;41.882;12.530;2023-12-14T00:45:33;100178.34;;;14.50;83.14
54948;BME280;41113;41.882;12.530;2023-12-14T00:47:59;100181.06;;;14.50;83.07
54948;BME280;41113;41.882;12.530;2023-12-14T00:50:24;100179.72;;;14.46;83.45
54948;BME280;41113;41.882;12.530;2023-12-14T00:52:51;100174.66;;;14.43;83.32
54948;BME280;41113;41.882;12.530;2023-12-14T00:55:16;100178.03;;;14.45;83.19
54948;BME280;41113;41.882;12.530;2023-12-14T00:57:41;100181.06;;;14.42;83.52
54948;BME280;41113;41.882;12.530;2023-12-14T01:00:07;100182.91;;;14.42;83.49
54948;BME280;41113;41.882;12.530;2023-12-14T01:02:34;100196.09;;;14.45;83.35
54948;BME280;41113;41.882;12.530;2023-12-14T01:05:00;100189.16;;;14.42;83.32
54948;BME280;41113;41.882;12.530;2023-12-14T01:07:25;100187.66;;;14.40;83.22
54948;BME280;41113;41.882;12.530;2023-12-14T01:09:51;100183.44;;;14.37;83.76
54948;BME280;41113;41.882;12.530;2023-12-14T01:12:16;100188.19;;;14.35;84.13
54948;BME280;41113;41.882;12.530;2023-12-14T01:14:42;100181.44;;;14.31;83.88
54948;BME280;41113;41.882;12.530;2023-12-14T01:17:07;100171.47;;;14.31;83.88
54948;BME280;41113;41.882;12.530;2023-12-14T01:19:32;100177.38;;;14.35;84.04
54948;BME280;41113;41.882;12.530;2023-12-14T01:21:58;100176.69;;;14.33;83.83
54948;BME280;41113;41.882;12.530;2023-12-14T01:24:23;100183.13;;;14.32;83.84
54948;BME280;41113;41.882;12.530;2023-12-14T01:26:48;100186.84;;;14.31;84.15
54948;BME280;41113;41.882;12.530;2023-12-14T01:29:14;100191.22;;;14.32;83.93
54948;BME280;41113;41.882;12.530;2023-12-14T01:31:39;100191.91;;;14.34;84.18
54948;BME280;41113;41.882;12.530;2023-12-14T01:34:05;100192.72;;;14.35;83.99
54948;BME280;41113;41.882;12.530;2023-12-14T01:36:30;100198.31;;;14.25;82.46
54948;BME280;41113;41.882;12.530;2023-12-14T01:38:55;100198.81;;;14.28;83.72
54948;BME280;41113;41.882;12.530;2023-12-14T01:41:21;100195.94;;;14.30;83.80
54948;BME280;41113;41.882;12.530;2023-12-14T01:43:46;100208.44;;;14.31;83.12
54948;BME280;41113;41.882;12.530;2023-12-14T01:46:11;100210.81;;;14.34;83.48
54948;BME280;41113;41.882;12.530;2023-12-14T01:48:38;100207.09;;;14.35;82.93
54948;BME280;41113;41.882;12.530;2023-12-14T01:51:03;100207.44;;;14.32;82.51
54948;BME280;41113;41.882;12.530;2023-12-14T01:53:29;100199.16;;;14.33;82.64
54948;BME280;41113;41.882;12.530;2023-12-14T01:55:55;100200.66;;;14.36;82.67
54948;BME280;41113;41.882;12.530;2023-12-14T01:58:20;100200.00;;;14.34;82.44
54948;BME280;41113;41.882;12.530;2023-12-14T02:00:54;100190.22;;;14.33;82.85
54948;BME280;41113;41.882;12.530;2023-12-14T02:03:21;100189.53;;;14.31;82.45
54948;BME280;41113;41.882;12.530;2023-12-14T02:05:46;100189.53;;;14.31;82.43
54948;BME280;41113;41.882;12.530;2023-12-14T02:08:12;100196.63;;;14.32;82.39
54948;BME280;41113;41.882;12.530;2023-12-14T02:10:37;100200.16;;;14.32;82.24
54948;BME280;41113;41.882;12.530;2023-12-14T02:13:03;100197.63;;;14.31;82.39
54948;BME280;41113;41.882;12.530;2023-12-14T02:15:28;100197.28;;;14.34;82.66
54948;BME280;41113;41.882;12.530;2023-12-14T02:17:54;100190.53;;;14.30;82.54
54948;BME280;41113;41.882;12.530;2023-12-14T02:20:19;100195.94;;;14.30;81.97
54948;BME280;41113;41.882;12.530;2023-12-14T02:22:54;100194.25;;;14.29;82.26
54948;BME280;41113;41.882;12.530;2023-12-14T02:25:21;100191.72;;;14.27;81.62
54948;BME280;41113;41.882;12.530;2023-12-14T02:27:47;100186.31;;;14.27;82.10
54948;BME280;41113;41.882;12.530;2023-12-14T02:30:13;100184.44;;;14.28;82.37
54948;BME280;41113;41.882;12.530;2023-12-14T02:32:39;100189.19;;;14.26;81.77
54948;BME280;41113;41.882;12.530;2023-12-14T02:35:05;100193.91;;;14.24;81.88
54948;BME280;41113;41.882;12.530;2023-12-14T02:37:32;100194.94;;;14.23;81.86
54948;BME280;41113;41.882;12.530;2023-12-14T02:39:59;100203.88;;;14.23;82.56
54948;BME280;41113;41.882;12.530;2023-12-14T02:42:25;100186.84;;;14.23;82.52
54948;BME280;41113;41.882;12.530;2023-12-14T02:44:53;100177.38;;;14.19;81.75
54948;BME280;41113;41.882;12.530;2023-12-14T02:47:18;100172.47;;;14.22;82.49
54948;BME280;41113;41.882;12.530;2023-12-14T02:49:44;100161.69;;;14.22;82.24
54948;BME280;41113;41.882;12.530;2023-12-14T02:52:09;100157.47;;;14.20;82.16
54948;BME280;41113;41.882;12.530;2023-12-14T02:54:35;100154.94;;;14.18;81.89
54948;BME280;41113;41.882;12.530;2023-12-14T02:57:01;100155.78;;;14.19;81.99
54948;BME280;41113;41.882;12.530;2023-12-14T02:59:27;100141.97;;;14.14;81.62
54948;BME280;41113;41.882;12.530;2023-12-14T03:01:53;100132.19;;;14.13;82.10
54948;BME280;41113;41.882;12.530;2023-12-14T03:04:18;100137.75;;;14.11;81.36
54948;BME280;41113;41.882;12.530;2023-12-14T03:06:43;100142.97;;;14.13;81.93
54948;BME280;41113;41.882;12.530;2023-12-14T03:09:09;100140.81;;;14.08;80.72
54948;BME280;41113;41.882;12.530;2023-12-14T03:11:34;100156.81;;;14.10;80.85
54948;BME280;41113;41.882;12.530;2023-12-14T03:13:59;100140.28;;;14.13;81.42
54948;BME280;41113;41.882;12.530;2023-12-14T03:16:25;100139.25;;;14.14;81.33
54948;BME280;41113;41.882;12.530;2023-12-14T03:18:50;100134.03;;;14.12;80.94
54948;BME280;41113;41.882;12.530;2023-12-14T03:21:19;100136.59;;;14.06;80.27
54948;BME280;41113;41.882;12.530;2023-12-14T03:23:44;100139.28;;;14.06;80.29
54948;BME280;41113;41.882;12.530;2023-12-14T03:26:10;100136.41;;;14.07;80.22
54948;BME280;41113;41.882;12.530;2023-12-14T03:28:35;100133.53;;;14.09;80.55
54948;BME280;41113;41.882;12.530;2023-12-14T03:31:01;100143.00;;;14.05;79.12
54948;BME280;41113;41.882;12.530;2023-12-14T03:33:26;100142.66;;;14.08;80.08
54948;BME280;41113;41.882;12.530;2023-12-14T03:35:52;100148.06;;;14.08;80.14
54948;BME280;41113;41.882;12.530;2023-12-14T03:38:17;100130.66;;;14.10;79.97
54948;BME280;41113;41.882;12.530;2023-12-14T03:40:42;100134.88;;;14.13;79.49
54948;BME280;41113;41.882;12.530;2023-12-14T03:43:08;100132.00;;;14.14;79.62
54948;BME280;41113;41.882;12.530;2023-12-14T03:45:34;100135.72;;;14.13;80.17
54948;BME280;41113;41.882;12.530;2023-12-14T03:48:00;100129.47;;;14.13;79.68
54948;BME280;41113;41.882;12.530;2023-12-14T03:50:25;100119.03;;;14.10;79.27
54948;BME280;41113;41.882;12.530;2023-12-14T03:52:50;100115.31;;;14.11;79.59
54948;BME280;41113;41.882;12.530;2023-12-14T03:55:16;100110.75;;;14.11;79.90
54948;BME280;41113;41.882;12.530;2023-12-14T03:57:41;100103.84;;;14.09;80.07
54948;BME280;41113;41.882;12.530;2023-12-14T04:00:09;100096.09;;;14.06;79.38
54948;BME280;41113;41.882;12.530;2023-12-14T04:02:35;100092.38;;;14.07;79.21
54948;BME280;41113;41.882;12.530;2023-12-14T04:05:01;100082.59;;;14.06;78.94
54948;BME280;41113;41.882;12.530;2023-12-14T04:07:27;100087.31;;;14.04;78.84
54948;BME280;41113;41.882;12.530;2023-12-14T04:09:53;100091.88;;;14.03;78.82
54948;BME280;41113;41.882;12.530;2023-12-14T04:12:18;100095.59;;;14.02;79.33
54948;BME280;41113;41.882;12.530;2023-12-14T04:14:43;100098.47;;;13.92;79.07
54948;BME280;41113;41.882;12.530;2023-12-14T04:17:10;100102.88;;;13.85;79.63
54948;BME280;41113;41.882;12.530;2023-12-14T04:19:38;100109.28;;;13.84;79.68
54948;BME280;41113;41.882;12.530;2023-12-14T04:22:03;100119.75;;;13.87;79.85
54948;BME280;41113;41.882;12.530;2023-12-14T04:24:29;100116.03;;;13.88;79.43
54948;BME280;41113;41.882;12.530;2023-12-14T04:26:56;100135.59;;;13.90;79.56
54948;BME280;41113;41.882;12.530;2023-12-14T04:29:23;100133.38;;;13.94;80.13
54948;BME280;41113;41.882;12.530;2023-12-14T04:31:48;100133.22;;;13.95;80.32
54948;BME280;41113;41.882;12.530;2023-12-14T04:34:24;100139.63;;;13.94;80.31
54948;BME280;41113;41.882;12.530;2023-12-14T04:36:49;100132.53;;;13.93;80.08
54948;BME280;41113;41.882;12.530;2023-12-14T04:39:15;100128.81;;;13.94;80.18
54948;BME280;41113;41.882;12.530;2023-12-14T04:41:41;100137.78;;;13.95;80.25
54948;BME280;41113;41.882;12.530;2023-12-14T04:44:07;100131.53;;;13.94;80.13
54948;BME280;41113;41.882;12.530;2023-12-14T04:46:32;100117.00;;;13.95;80.09
54948;BME280;41113;41.882;12.530;2023-12-14T04:48:58;100106.56;;;13.92;80.08
54948;BME280;41113;41.882;12.530;2023-12-14T04:51:23;100106.06;;;13.89;79.67
54948;BME280;41113;41.882;12.530;2023-12-14T04:53:49;100119.06;;;13.85;79.91
54948;BME280;41113;41.882;12.530;2023-12-14T04:56:14;100110.97;;;13.85;79.99
54948;BME280;41113;41.882;12.530;2023-12-14T04:58:41;100111.31;;;13.82;80.19
54948;BME280;41113;41.882;12.530;2023-12-14T05:01:07;100105.25;;;13.80;80.55
54948;BME280;41113;41.882;12.530;2023-12-14T05:03:34;100109.97;;;13.78;80.63
54948;BME280;41113;41.882;12.530;2023-12-14T05:06:00;100111.66;;;13.79;80.70
54948;BME280;41113;41.882;12.530;2023-12-14T05:08:25;100109.97;;;13.78;81.03
54948;BME280;41113;41.882;12.530;2023-12-14T05:10:50;100119.09;;;13.77;80.98
54948;BME280;41113;41.882;12.530;2023-12-14T05:13:16;100117.41;;;13.76;81.10
54948;BME280;41113;41.882;12.530;2023-12-14T05:15:41;100120.28;;;13.75;81.17
54948;BME280;41113;41.882;12.530;2023-12-14T05:18:07;100121.13;;;13.75;81.33
54948;BME280;41113;41.882;12.530;2023-12-14T05:20:32;100121.97;;;13.76;81.20
54948;BME280;41113;41.882;12.530;2023-12-14T05:22:59;100119.44;;;13.74;81.50
54948;BME280;41113;41.882;12.530;2023-12-14T05:25:24;100121.97;;;13.76;81.67
54948;BME280;41113;41.882;12.530;2023-12-14T05:27:50;100121.13;;;13.75;81.66
54948;BME280;41113;41.882;12.530;2023-12-14T05:30:15;100128.88;;;13.70;81.52
54948;BME280;41113;41.882;12.530;2023-12-14T05:32:41;100121.47;;;13.72;82.07
54948;BME280;41113;41.882;12.530;2023-12-14T05:35:07;100119.59;;;13.73;82.27
54948;BME280;41113;41.882;12.530;2023-12-14T05:37:32;100120.63;;;13.72;82.13
54948;BME280;41113;41.882;12.530;2023-12-14T05:39:58;100135.63;;;13.74;82.39
54948;BME280;41113;41.882;12.530;2023-12-14T05:42:23;100123.66;;;13.77;82.53
54948;BME280;41113;41.882;12.530;2023-12-14T05:44:49;100120.28;;;13.75;82.51
54948;BME280;41113;41.882;12.530;2023-12-14T05:47:14;100119.44;;;13.74;82.72
54948;BME280;41113;41.882;12.530;2023-12-14T05:49:43;100125.84;;;13.73;82.50
54948;BME280;41113;41.882;12.530;2023-12-14T05:52:09;100120.44;;;13.73;82.88
54948;BME280;41113;41.882;12.530;2023-12-14T05:54:36;100127.34;;;13.76;83.01
54948;BME280;41113;41.882;12.530;2023-12-14T05:57:02;100128.19;;;13.76;83.04
54948;BME280;41113;41.882;12.530;2023-12-14T05:59:28;100138.16;;;13.76;83.14
54948;BME280;41113;41.882;12.530;2023-12-14T06:02:00;100139.00;;;13.76;83.48
54948;BME280;41113;41.882;12.530;2023-12-14T06:04:26;100140.19;;;13.74;83.96
54948;BME280;41113;41.882;12.530;2023-12-14T06:06:52;100141.53;;;13.69;84.42
54948;BME280;41113;41.882;12.530;2023-12-14T06:09:18;100149.47;;;13.71;84.33
54948;BME280;41113;41.882;12.530;2023-12-14T06:11:47;100157.22;;;13.74;84.46
54948;BME280;41113;41.882;12.530;2023-12-14T06:14:12;100160.41;;;13.69;84.83
54948;BME280;41113;41.882;12.530;2023-12-14T06:16:37;100162.75;;;13.64;85.38
54948;BME280;41113;41.882;12.530;2023-12-14T06:19:03;100168.31;;;13.63;85.75
54948;BME280;41113;41.882;12.530;2023-12-14T06:21:28;100158.38;;;13.63;85.96
54948;BME280;41113;41.882;12.530;2023-12-14T06:23:55;100149.13;;;13.66;85.58
54948;BME280;41113;41.882;12.530;2023-12-14T06:26:20;100149.13;;;13.66;85.81
54948;BME280;41113;41.882;12.530;2023-12-14T06:28:46;100154.53;;;13.66;86.48
54948;BME280;41113;41.882;12.530;2023-12-14T06:31:15;100154.84;;;13.63;86.58
54948;BME280;41113;41.882;12.530;2023-12-14T06:33:41;100160.25;;;13.55;87.09
54948;BME280;41113;41.882;12.530;2023-12-14T06:36:07;100161.94;;;13.39;88.28
54948;BME280;41113;41.882;12.530;2023-12-14T06:38:34;100169.31;;;13.21;89.60
54948;BME280;41113;41.882;12.530;2023-12-14T06:41:03;100174.31;;;13.08;90.79
54948;BME280;41113;41.882;12.530;2023-12-14T06:43:28;100174.59;;;12.97;91.42
54948;BME280;41113;41.882;12.530;2023-12-14T06:45:54;100184.69;;;12.95;91.88
54948;BME280;41113;41.882;12.530;2023-12-14T06:48:20;100174.94;;;12.94;91.99
54948;BME280;41113;41.882;12.530;2023-12-14T06:50:45;100171.22;;;12.95;92.71
54948;BME280;41113;41.882;12.530;2023-12-14T06:53:11;100181.03;;;13.04;91.37
54948;BME280;41113;41.882;12.530;2023-12-14T06:55:36;100187.66;;;13.18;90.46
54948;BME280;41113;41.882;12.530;2023-12-14T06:58:02;100181.78;;;13.30;89.84
54948;BME280;41113;41.882;12.530;2023-12-14T07:00:27;100187.38;;;13.37;90.49
54948;BME280;41113;41.882;12.530;2023-12-14T07:02:54;100184.47;;;13.30;90.99
54948;BME280;41113;41.882;12.530;2023-12-14T07:05:20;100178.25;;;13.22;91.38
54948;BME280;41113;41.882;12.530;2023-12-14T07:07:45;100179.41;;;13.27;91.38
54948;BME280;41113;41.882;12.530;2023-12-14T07:10:11;100185.16;;;13.32;91.06
54948;BME280;41113;41.882;12.530;2023-12-14T07:12:36;100184.19;;;13.42;90.52
54948;BME280;41113;41.882;12.530;2023-12-14T07:15:02;100186.88;;;13.50;90.15
54948;BME280;41113;41.882;12.530;2023-12-14T07:17:27;100195.97;;;13.57;90.14
54948;BME280;41113;41.882;12.530;2023-12-14T07:19:52;100197.00;;;13.64;89.91
54948;BME280;41113;41.882;12.530;2023-12-14T07:22:20;100201.06;;;13.68;89.84
54948;BME280;41113;41.882;12.530;2023-12-14T07:24:46;100204.44;;;13.70;90.13
54948;BME280;41113;41.882;12.530;2023-12-14T07:27:11;100213.88;;;13.66;90.39
54948;BME280;41113;41.882;12.530;2023-12-14T07:29:36;100214.19;;;13.63;90.73
54948;BME280;41113;41.882;12.530;2023-12-14T07:32:02;100211.03;;;13.67;90.32
54948;BME280;41113;41.882;12.530;2023-12-14T07:34:27;100203.59;;;13.69;90.24
54948;BME280;41113;41.882;12.530;2023-12-14T07:36:53;100215.91;;;13.72;90.37
54948;BME280;41113;41.882;12.530;2023-12-14T07:39:19;100214.91;;;13.73;90.37
54948;BME280;41113;41.882;12.530;2023-12-14T07:41:45;100209.47;;;13.65;90.98
54948;BME280;41113;41.882;12.530;2023-12-14T07:44:11;100219.25;;;13.58;91.96
54948;BME280;41113;41.882;12.530;2023-12-14T07:46:36;100218.06;;;13.60;91.70
54948;BME280;41113;41.882;12.530;2023-12-14T07:49:06;100222.13;;;13.64;92.57
54948;BME280;41113;41.882;12.530;2023-12-14T07:51:31;100217.56;;;13.65;92.15
54948;BME280;41113;41.882;12.530;2023-12-14T07:53:57;100212.19;;;13.73;91.41
54948;BME280;41113;41.882;12.530;2023-12-14T07:56:22;100207.13;;;13.86;90.50
54948;BME280;41113;41.882;12.530;2023-12-14T07:58:50;100213.03;;;13.98;89.88
54948;BME280;41113;41.882;12.530;2023-12-14T08:01:17;100216.75;;;14.05;89.66
54948;BME280;41113;41.882;12.530;2023-12-14T08:03:42;100222.13;;;14.13;89.24
54948;BME280;41113;41.882;12.530;2023-12-14T08:06:07;100226.34;;;14.24;88.83
54948;BME280;41113;41.882;12.530;2023-12-14T08:08:33;100221.59;;;14.26;88.86
54948;BME280;41113;41.882;12.530;2023-12-14T08:10:59;100227.34;;;14.23;88.88
54948;BME280;41113;41.882;12.530;2023-12-14T08:13:25;100239.16;;;14.30;88.44
54948;BME280;41113;41.882;12.530;2023-12-14T08:15:50;100246.41;;;14.29;88.80
54948;BME280;41113;41.882;12.530;2023-12-14T08:18:15;100245.59;;;14.21;89.22
54948;BME280;41113;41.882;12.530;2023-12-14T08:20:41;100254.03;;;14.18;89.42
54948;BME280;41113;41.882;12.530;2023-12-14T08:23:06;100262.78;;;14.28;89.23
54948;BME280;41113;41.882;12.530;2023-12-14T08:25:32;100262.44;;;14.39;88.67
54948;BME280;41113;41.882;12.530;2023-12-14T08:27:57;100257.91;;;14.48;88.37
54948;BME280;41113;41.882;12.530;2023-12-14T08:30:25;100264.31;;;14.55;88.20
54948;BME280;41113;41.882;12.530;2023-12-14T08:32:51;100269.19;;;14.68;87.96
54948;BME280;41113;41.882;12.530;2023-12-14T08:35:16;100276.25;;;14.77;87.36
54948;BME280;41113;41.882;12.530;2023-12-14T08:37:42;100271.50;;;14.79;87.30
54948;BME280;41113;41.882;12.530;2023-12-14T08:40:09;100273.88;;;14.82;87.44
54948;BME280;41113;41.882;12.530;2023-12-14T08:42:34;100272.84;;;14.83;87.59
54948;BME280;41113;41.882;12.530;2023-12-14T08:45:00;100269.97;;;14.84;87.41
54948;BME280;41113;41.882;12.530;2023-12-14T08:47:26;100280.28;;;14.81;87.57
54948;BME280;41113;41.882;12.530;2023-12-14T08:49:51;100278.94;;;14.77;87.70
54948;BME280;41113;41.882;12.530;2023-12-14T08:52:18;100285.34;;;14.84;87.62
54948;BME280;41113;41.882;12.530;2023-12-14T08:54:43;100281.28;;;14.88;87.62
54948;BME280;41113;41.882;12.530;2023-12-14T08:57:10;100291.25;;;14.87;85.97
54948;BME280;41113;41.882;12.530;2023-12-14T08:59:35;100287.88;;;14.85;84.41
54948;BME280;41113;41.882;12.530;2023-12-14T09:02:01;100288.38;;;14.89;84.71
54948;BME280;41113;41.882;12.530;2023-12-14T09:04:26;100292.44;;;14.85;84.71
54948;BME280;41113;41.882;12.530;2023-12-14T09:06:52;100288.72;;;14.86;84.83
54948;BME280;41113;41.882;12.530;2023-12-14T09:09:18;100300.88;;;14.90;84.70
54948;BME280;41113;41.882;12.530;2023-12-14T09:11:44;100306.97;;;14.84;84.27
54948;BME280;41113;41.882;12.530;2023-12-14T09:14:09;100307.97;;;14.91;83.97
54948;BME280;41113;41.882;12.530;2023-12-14T09:16:35;100303.56;;;14.98;84.06
54948;BME280;41113;41.882;12.530;2023-12-14T09:19:00;100308.28;;;15.04;83.95
54948;BME280;41113;41.882;12.530;2023-12-14T09:21:25;100316.03;;;15.07;83.88
54948;BME280;41113;41.882;12.530;2023-12-14T09:23:51;100321.75;;;15.12;83.65
54948;BME280;41113;41.882;12.530;2023-12-14T09:26:18;100313.97;;;15.17;83.54
54948;BME280;41113;41.882;12.530;2023-12-14T09:28:44;100319.47;;;14.85;82.31
54948;BME280;41113;41.882;12.530;2023-12-14T09:31:10;100314.97;;;14.69;82.34
54948;BME280;41113;41.882;12.530;2023-12-14T09:33:35;100325.94;;;14.68;83.85
54948;BME280;41113;41.882;12.530;2023-12-14T09:36:01;100319.88;;;14.57;84.52
54948;BME280;41113;41.882;12.530;2023-12-14T09:38:26;100321.56;;;14.50;84.63
54948;BME280;41113;41.882;12.530;2023-12-14T09:40:51;100327.97;;;14.74;84.37
54948;BME280;41113;41.882;12.530;2023-12-14T09:43:17;100329.78;;;14.89;83.69
54948;BME280;41113;41.882;12.530;2023-12-14T09:45:42;100318.44;;;14.94;83.51
54948;BME280;41113;41.882;12.530;2023-12-14T09:48:11;100324.69;;;15.03;83.35
54948;BME280;41113;41.882;12.530;2023-12-14T09:50:39;100332.44;;;15.06;83.37
54948;BME280;41113;41.882;12.530;2023-12-14T09:53:05;100337.53;;;14.92;83.34
54948;BME280;41113;41.882;12.530;2023-12-14T09:55:31;100327.56;;;14.93;83.77
54948;BME280;41113;41.882;12.530;2023-12-14T09:57:56;100333.50;;;14.88;83.56
54948;BME280;41113;41.882;12.530;2023-12-14T10:00:51;100331.66;;;14.81;83.61
54948;BME280;41113;41.882;12.530;2023-12-14T10:05:45;100327.66;;;15.16;82.87
54948;BME280;41113;41.882;12.530;2023-12-14T10:08:13;100327.81;;;15.22;82.53
54948;BME280;41113;41.882;12.530;2023-12-14T10:10:38;100322.75;;;15.19;82.66
54948;BME280;41113;41.882;12.530;2023-12-14T10:13:04;100321.91;;;15.19;82.67
54948;BME280;41113;41.882;12.530;2023-12-14T10:15:29;100326.13;;;15.21;82.80
54948;BME280;41113;41.882;12.530;2023-12-14T10:17:55;100322.03;;;15.25;82.84
54948;BME280;41113;41.882;12.530;2023-12-14T10:20:22;100318.00;;;15.21;82.57
54948;BME280;41113;41.882;12.530;2023-12-14T10:22:48;100321.56;;;15.22;82.70
54948;BME280;41113;41.882;12.530;2023-12-14T10:25:20;100324.78;;;15.17;82.80
54948;BME280;41113;41.882;12.530;2023-12-14T10:27:50;100313.97;;;15.17;82.86
54948;BME280;41113;41.882;12.530;2023-12-14T10:30:19;100317.66;;;15.24;82.63
54948;BME280;41113;41.882;12.530;2023-12-14T10:32:48;100322.41;;;15.22;82.55
54948;BME280;41113;41.882;12.530;2023-12-14T10:35:14;100319.50;;;15.24;82.52
54948;BME280;41113;41.882;12.530;2023-12-14T10:37:42;100311.88;;;15.27;82.42
54948;BME280;41113;41.882;12.530;2023-12-14T10:40:09;100318.00;;;15.30;82.42
54948;BME280;41113;41.882;12.530;2023-12-14T10:42:39;100329.13;;;15.26;81.79
54948;BME280;41113;41.882;12.530;2023-12-14T10:45:08;100320.72;;;15.21;82.47
54948;BME280;41113;41.882;12.530;2023-12-14T10:47:36;100327.88;;;15.06;80.93
54948;BME280;41113;41.882;12.530;2023-12-14T10:50:03;100320.88;;;14.73;80.19
54948;BME280;41113;41.882;12.530;2023-12-14T10:52:31;100322.56;;;14.57;80.22
54948;BME280;41113;41.882;12.530;2023-12-14T10:55:03;100320.22;;;14.46;80.46
54948;BME280;41113;41.882;12.530;2023-12-14T10:57:30;100326.97;;;14.34;79.65
54948;BME280;41113;41.882;12.530;2023-12-14T10:59:58;100317.16;;;14.33;80.28
54948;BME280;41113;41.882;12.530;2023-12-14T11:02:24;100314.97;;;14.20;80.99
54948;BME280;41113;41.882;12.530;2023-12-14T11:05:02;100316.66;;;14.21;81.49
54948;BME280;41113;41.882;12.530;2023-12-14T11:10:15;100313.44;;;14.26;81.58
54948;BME280;41113;41.882;12.530;2023-12-14T11:15:21;100313.94;;;14.29;81.96
54948;BME280;41113;41.882;12.530;2023-12-14T11:23:09;100311.06;;;14.23;83.46
54948;BME280;41113;41.882;12.530;2023-12-14T11:25:35;100312.44;;;14.19;83.78
54948;BME280;41113;41.882;12.530;2023-12-14T11:28:04;100310.06;;;14.16;84.35
54948;BME280;41113;41.882;12.530;2023-12-14T11:30:31;100304.84;;;14.14;85.16
54948;BME280;41113;41.882;12.530;2023-12-14T11:32:57;100306.53;;;14.15;85.25
54948;BME280;41113;41.882;12.530;2023-12-14T11:35:24;100305.00;;;14.21;85.74
54948;BME280;41113;41.882;12.530;2023-12-14T11:37:49;100307.03;;;14.35;84.79
54948;BME280;41113;41.882;12.530;2023-12-14T11:40:16;100297.56;;;14.39;84.79
54948;BME280;41113;41.882;12.530;2023-12-14T11:43:00;100306.22;;;14.43;84.53
54948;BME280;41113;41.882;12.530;2023-12-14T11:45:26;100300.97;;;14.33;84.29
54948;BME280;41113;41.882;12.530;2023-12-14T11:47:52;100306.88;;;14.37;84.45
54948;BME280;41113;41.882;12.530;2023-12-14T11:50:18;100311.56;;;14.26;83.30
54948;BME280;41113;41.882;12.530;2023-12-14T11:52:44;100314.13;;;14.20;82.76
54948;BME280;41113;41.882;12.530;2023-12-14T11:55:10;100316.63;;;14.29;82.10
54948;BME280;41113;41.882;12.530;2023-12-14T11:57:36;100319.03;;;14.41;81.66
54948;BME280;41113;41.882;12.530;2023-12-14T12:00:02;100321.56;;;14.50;80.52
54948;BME280;41113;41.882;12.530;2023-12-14T12:02:28;100325.09;;;14.59;80.28
54948;BME280;41113;41.882;12.530;2023-12-14T12:04:53;100331.88;;;14.47;79.03
54948;BME280;41113;41.882;12.530;2023-12-14T12:07:19;100319.19;;;14.55;79.89
54948;BME280;41113;41.882;12.530;2023-12-14T12:09:44;100322.56;;;14.74;79.08
54948;BME280;41113;41.882;12.530;2023-12-14T12:12:11;100322.91;;;14.71;77.61
54948;BME280;41113;41.882;12.530;2023-12-14T12:14:38;100320.88;;;14.73;78.55
54948;BME280;41113;41.882;12.530;2023-12-14T12:17:04;100305.66;;;14.72;78.04
54948;BME280;41113;41.882;12.530;2023-12-14T12:19:35;100305.97;;;14.77;77.58
54948;BME280;41113;41.882;12.530;2023-12-14T12:22:00;100310.75;;;14.67;76.54
54948;BME280;41113;41.882;12.530;2023-12-14T12:24:26;100302.81;;;14.65;76.97
54948;BME280;41113;41.882;12.530;2023-12-14T12:26:51;100304.66;;;14.65;77.52
54948;BME280;41113;41.882;12.530;2023-12-14T12:29:17;100294.19;;;14.70;77.55
54948;BME280;41113;41.882;12.530;2023-12-14T12:31:42;100306.19;;;14.59;76.69
54948;BME280;41113;41.882;12.530;2023-12-14T12:34:08;100299.09;;;14.58;77.27
54948;BME280;41113;41.882;12.530;2023-12-14T12:36:34;100298.25;;;14.66;77.52
54948;BME280;41113;41.882;12.530;2023-12-14T12:39:00;100298.41;;;14.56;77.28
54948;BME280;41113;41.882;12.530;2023-12-14T12:41:25;100291.81;;;14.58;76.52
54948;BME280;41113;41.882;12.530;2023-12-14T12:43:50;100300.94;;;14.66;76.45
54948;BME280;41113;41.882;12.530;2023-12-14T12:46:16;100297.59;;;14.63;75.54
54948;BME280;41113;41.882;12.530;2023-12-14T12:48:42;100306.00;;;14.60;75.37